createdAt,value
2022-10-01T00:00:27.176Z,11.90
2022-10-01T00:01:27.254Z,11.86
2022-10-01T00:02:27.189Z,11.78
2022-10-01T00:03:27.157Z,11.94
2022-10-01T00:04:27.139Z,11.99
2022-10-01T00:05:27.112Z,11.95
2022-10-01T00:06:27.129Z,11.88
2022-10-01T00:07:27.093Z,11.90
2022-10-01T00:08:27.095Z,11.91
2022-10-01T00:09:27.093Z,11.90
2022-10-01T00:10:27.082Z,11.88
2022-10-01T00:11:27.049Z,11.94
2022-10-01T00:12:27.055Z,11.94
2022-10-01T00:13:27.029Z,11.91
2022-10-01T00:14:27.054Z,11.95
2022-10-01T00:15:27.006Z,11.95
2022-10-01T00:16:27.062Z,11.90
2022-10-01T00:17:26.986Z,11.88
2022-10-01T00:18:26.976Z,11.86
2022-10-01T00:19:26.983Z,11.83
2022-10-01T00:20:26.974Z,11.80
2022-10-01T00:21:26.958Z,11.78
2022-10-01T00:22:26.936Z,11.78
2022-10-01T00:23:26.934Z,11.77
2022-10-01T00:24:26.916Z,11.78
2022-10-01T00:25:26.935Z,11.75
2022-10-01T00:26:26.890Z,11.75
2022-10-01T00:27:26.896Z,11.75
2022-10-01T00:28:26.929Z,11.77
2022-10-01T00:29:26.871Z,11.75
2022-10-01T00:30:26.873Z,11.73
2022-10-01T00:31:26.887Z,11.72
2022-10-01T00:32:26.831Z,11.69
2022-10-01T00:33:26.830Z,11.70
2022-10-01T00:34:26.804Z,11.70
2022-10-01T00:35:26.809Z,11.73
2022-10-01T00:36:26.812Z,11.72
2022-10-01T00:37:26.794Z,11.80
2022-10-01T00:38:26.763Z,11.84
2022-10-01T00:39:26.772Z,11.84
2022-10-01T00:40:26.742Z,11.86
2022-10-01T00:41:26.773Z,11.83
2022-10-01T00:42:26.721Z,11.84
2022-10-01T00:43:26.724Z,11.81
2022-10-01T00:44:26.699Z,11.78
2022-10-01T00:45:26.750Z,11.73
2022-10-01T00:46:26.678Z,11.72
2022-10-01T00:47:26.703Z,11.73
2022-10-01T00:48:26.668Z,11.75
2022-10-01T00:49:26.662Z,11.73
2022-10-01T00:50:26.640Z,11.80
2022-10-01T00:51:26.641Z,11.81
2022-10-01T00:52:26.637Z,11.81
2022-10-01T00:53:26.619Z,11.80
2022-10-01T00:54:26.614Z,11.78
2022-10-01T00:55:26.604Z,11.80
2022-10-01T00:56:26.573Z,11.80
2022-10-01T00:57:26.576Z,11.80
2022-10-01T00:58:26.573Z,11.81
2022-10-01T00:59:26.557Z,11.87
2022-10-01T01:00:26.535Z,11.90
2022-10-01T01:01:26.553Z,11.88
2022-10-01T01:02:26.646Z,11.91
2022-10-01T01:03:26.535Z,11.91
2022-10-01T01:04:26.489Z,11.87
2022-10-01T01:05:26.493Z,11.86
2022-10-01T01:06:26.469Z,11.80
2022-10-01T01:07:26.470Z,11.81
2022-10-01T01:08:26.448Z,11.80
2022-10-01T01:09:26.472Z,11.81
2022-10-01T01:10:26.424Z,11.83
2022-10-01T01:11:26.429Z,11.80
2022-10-01T01:12:26.407Z,11.78
2022-10-01T01:13:26.410Z,11.80
2022-10-01T01:14:26.416Z,11.80
2022-10-01T01:15:26.389Z,11.81
2022-10-01T01:16:26.362Z,11.86
2022-10-01T01:17:26.367Z,11.91
2022-10-01T01:18:26.344Z,11.91
2022-10-01T01:19:26.344Z,11.91
2022-10-01T01:20:26.338Z,11.94
2022-10-01T01:21:26.324Z,11.94
2022-10-01T01:22:26.301Z,11.94
2022-10-01T01:23:26.304Z,11.91
2022-10-01T01:24:26.278Z,11.91
2022-10-01T01:25:26.347Z,11.91
2022-10-01T01:26:26.264Z,11.90
2022-10-01T01:27:26.265Z,11.91
2022-10-01T01:28:26.291Z,11.95
2022-10-01T01:29:26.243Z,11.95
2022-10-01T01:30:26.214Z,11.94
2022-10-01T01:31:26.265Z,12.03
2022-10-01T01:32:26.195Z,12.09
2022-10-01T01:33:26.200Z,12.12
2022-10-01T01:34:26.171Z,12.09
2022-10-01T01:35:26.182Z,12.04
2022-10-01T01:36:26.187Z,12.03
2022-10-01T01:37:26.158Z,12.04
2022-10-01T01:38:26.136Z,12.03
2022-10-01T01:39:26.134Z,11.97
2022-10-01T01:40:26.114Z,11.95
2022-10-01T01:41:26.116Z,11.91
2022-10-01T01:42:26.111Z,11.95
2022-10-01T01:43:26.094Z,11.94
2022-10-01T01:44:26.071Z,11.94
2022-10-01T01:45:26.073Z,11.94
2022-10-01T01:46:26.048Z,11.91
2022-10-01T01:47:26.076Z,11.90
2022-10-01T01:48:26.025Z,11.88
2022-10-01T01:49:26.034Z,11.84
2022-10-01T01:50:26.005Z,11.86
2022-10-01T01:51:26.013Z,11.84
2022-10-01T01:52:25.984Z,11.86
2022-10-01T01:53:26.011Z,11.83
2022-10-01T01:54:25.961Z,11.81
2022-10-01T01:55:25.965Z,11.80
2022-10-01T01:56:25.947Z,11.73
2022-10-01T01:57:25.951Z,11.70
2022-10-01T01:58:25.959Z,11.65
2022-10-01T01:59:25.925Z,11.62
2022-10-01T02:00:25.899Z,11.57
2022-10-01T02:01:25.989Z,11.59
2022-10-01T02:02:25.907Z,11.54
2022-10-01T02:03:25.902Z,11.52
2022-10-01T02:04:25.883Z,11.45
2022-10-01T02:05:25.869Z,11.55
2022-10-01T02:06:25.837Z,11.48
2022-10-01T02:07:25.843Z,11.44
2022-10-01T02:08:25.819Z,11.43
2022-10-01T02:09:25.843Z,11.36
2022-10-01T02:10:25.795Z,11.32
2022-10-01T02:11:25.799Z,11.29
2022-10-01T02:12:25.779Z,11.27
2022-10-01T02:13:25.781Z,11.27
2022-10-01T02:14:25.754Z,11.22
2022-10-01T02:15:25.777Z,11.18
2022-10-01T02:16:25.780Z,11.15
2022-10-01T02:17:25.738Z,11.12
2022-10-01T02:18:25.720Z,11.10
2022-10-01T02:19:25.716Z,11.07
2022-10-01T02:20:25.713Z,11.07
2022-10-01T02:21:25.709Z,11.04
2022-10-01T02:22:25.667Z,11.00
2022-10-01T02:23:25.671Z,10.97
2022-10-01T02:24:25.649Z,10.93
2022-10-01T02:25:25.655Z,10.90
2022-10-01T02:26:25.648Z,10.89
2022-10-01T02:27:25.630Z,10.86
2022-10-01T02:28:25.658Z,10.82
2022-10-01T02:29:25.617Z,10.78
2022-10-01T02:30:25.587Z,10.76
2022-10-01T02:31:25.662Z,10.75
2022-10-01T02:32:25.570Z,10.75
2022-10-01T02:33:25.574Z,10.79
2022-10-01T02:34:25.551Z,10.79
2022-10-01T02:35:25.543Z,10.72
2022-10-01T02:36:25.535Z,10.69
2022-10-01T02:37:25.552Z,10.71
2022-10-01T02:38:25.501Z,10.68
2022-10-01T02:39:25.525Z,10.63
2022-10-01T02:40:25.477Z,10.61
2022-10-01T02:41:25.488Z,10.68
2022-10-01T02:42:25.490Z,10.69
2022-10-01T02:43:25.462Z,10.64
2022-10-01T02:44:25.437Z,10.67
2022-10-01T02:45:25.444Z,10.63
2022-10-01T02:46:25.415Z,10.64
2022-10-01T02:47:25.421Z,10.67
2022-10-01T02:48:25.428Z,10.64
2022-10-01T02:49:29.787Z,10.61
2022-10-01T02:50:25.392Z,10.59
2022-10-01T02:51:25.381Z,10.60
2022-10-01T02:52:25.365Z,10.56
2022-10-01T02:53:25.381Z,10.53
2022-10-01T02:54:25.336Z,10.51
2022-10-01T02:55:25.345Z,10.48
2022-10-01T02:56:25.317Z,10.51
2022-10-01T02:57:25.318Z,10.48
2022-10-01T02:58:25.291Z,10.49
2022-10-01T02:59:25.313Z,10.48
2022-10-01T03:00:25.270Z,10.44
2022-10-01T03:01:25.321Z,10.44
2022-10-01T03:02:25.269Z,10.48
2022-10-01T03:03:25.248Z,10.49
2022-10-01T03:04:25.260Z,10.53
2022-10-01T03:05:25.232Z,10.49
2022-10-01T03:06:25.209Z,10.44
2022-10-01T03:07:25.211Z,10.42
2022-10-01T03:08:25.183Z,10.42
2022-10-01T03:09:25.188Z,10.42
2022-10-01T03:10:25.188Z,10.44
2022-10-01T03:11:25.167Z,10.41
2022-10-01T03:12:25.145Z,10.42
2022-10-01T03:13:25.149Z,10.41
2022-10-01T03:14:25.120Z,10.34
2022-10-01T03:15:25.147Z,10.37
2022-10-01T03:16:25.180Z,10.35
2022-10-01T03:17:25.104Z,10.31
2022-10-01T03:18:25.081Z,10.30
2022-10-01T03:19:25.084Z,10.28
2022-10-01T03:20:25.057Z,10.25
2022-10-01T03:21:25.102Z,10.25
2022-10-01T03:22:25.066Z,10.25
2022-10-01T03:23:25.044Z,10.25
2022-10-01T03:24:25.028Z,10.30
2022-10-01T03:25:25.025Z,10.31
2022-10-01T03:26:25.088Z,10.28
2022-10-01T03:27:24.998Z,10.23
2022-10-01T03:28:25.039Z,10.28
2022-10-01T03:29:24.976Z,10.25
2022-10-01T03:30:24.961Z,10.22
2022-10-01T03:31:25.074Z,10.19
2022-10-01T03:32:24.953Z,10.19
2022-10-01T03:33:24.937Z,10.17
2022-10-01T03:34:24.908Z,10.12
2022-10-01T03:35:24.923Z,10.15
2022-10-01T03:36:24.897Z,10.17
2022-10-01T03:37:24.938Z,10.16
2022-10-01T03:38:24.868Z,10.23
2022-10-01T03:39:24.870Z,10.17
2022-10-01T03:40:24.871Z,10.16
2022-10-01T03:41:24.855Z,10.15
2022-10-01T03:42:24.828Z,10.12
2022-10-01T03:43:24.858Z,10.31
2022-10-01T03:44:24.806Z,10.35
2022-10-01T03:45:24.929Z,10.31
2022-10-01T03:46:24.789Z,10.28
2022-10-01T03:47:24.817Z,10.30
2022-10-01T03:48:24.789Z,10.30
2022-10-01T03:49:24.766Z,10.26
2022-10-01T03:50:24.747Z,10.25
2022-10-01T03:51:24.752Z,10.30
2022-10-01T03:52:24.728Z,10.33
2022-10-01T03:53:24.728Z,10.30
2022-10-01T03:54:24.729Z,10.23
2022-10-01T03:55:24.707Z,10.20
2022-10-01T03:56:24.682Z,10.19
2022-10-01T03:57:24.689Z,10.15
2022-10-01T03:58:24.664Z,10.17
2022-10-01T03:59:24.687Z,10.16
2022-10-01T04:00:24.636Z,10.15
2022-10-01T04:01:24.687Z,10.15
2022-10-01T04:02:24.703Z,10.13
2022-10-01T04:03:24.624Z,10.10
2022-10-01T04:04:24.597Z,10.07
2022-10-01T04:05:24.621Z,10.10
2022-10-01T04:06:24.577Z,10.15
2022-10-01T04:07:24.582Z,10.30
2022-10-01T04:08:24.650Z,10.26
2022-10-01T04:09:24.579Z,10.28
2022-10-01T04:10:24.556Z,10.35
2022-10-01T04:11:24.542Z,10.34
2022-10-01T04:12:24.509Z,10.31
2022-10-01T04:13:24.518Z,10.35
2022-10-01T04:14:24.497Z,10.30
2022-10-01T04:15:24.495Z,10.28
2022-10-01T04:16:24.607Z,10.26
2022-10-01T04:17:24.481Z,10.30
2022-10-01T04:18:24.451Z,10.30
2022-10-01T04:19:24.456Z,10.25
2022-10-01T04:20:24.454Z,10.20
2022-10-01T04:21:24.493Z,10.23
2022-10-01T04:22:24.409Z,10.20
2022-10-01T04:23:24.410Z,10.22
2022-10-01T04:24:24.387Z,10.20
2022-10-01T04:25:24.392Z,10.19
2022-10-01T04:26:24.379Z,10.17
2022-10-01T04:27:24.397Z,10.15
2022-10-01T04:28:24.382Z,10.13
2022-10-01T04:29:24.348Z,10.12
2022-10-01T04:30:24.327Z,10.10
2022-10-01T04:31:24.379Z,10.07
2022-10-01T04:32:24.330Z,10.07
2022-10-01T04:33:24.304Z,10.07
2022-10-01T04:34:24.294Z,10.07
2022-10-01T04:35:24.272Z,10.05
2022-10-01T04:36:24.274Z,10.09
2022-10-01T04:37:24.254Z,10.10
2022-10-01T04:38:24.308Z,10.09
2022-10-01T04:39:24.230Z,10.17
2022-10-01T04:40:24.233Z,10.23
2022-10-01T04:41:24.207Z,10.23
2022-10-01T04:42:24.216Z,10.16
2022-10-01T04:43:24.213Z,10.17
2022-10-01T04:44:24.221Z,10.17
2022-10-01T04:45:24.166Z,10.25
2022-10-01T04:46:24.235Z,10.26
2022-10-01T04:47:24.144Z,10.22
2022-10-01T04:48:24.148Z,10.19
2022-10-01T04:49:24.355Z,10.19
2022-10-01T04:50:24.130Z,10.19
2022-10-01T04:51:24.127Z,10.19
2022-10-01T04:52:24.120Z,10.17
2022-10-01T04:53:24.100Z,10.20
2022-10-01T04:54:24.335Z,10.22
2022-10-01T04:55:24.061Z,10.20
2022-10-01T04:56:24.069Z,10.20
2022-10-01T04:57:24.046Z,10.19
2022-10-01T04:58:24.047Z,10.22
2022-10-01T04:59:24.021Z,10.19
2022-10-01T05:00:24.274Z,10.22
2022-10-01T05:01:24.085Z,10.22
2022-10-01T05:02:24.038Z,10.26
2022-10-01T05:03:23.980Z,10.34
2022-10-01T05:04:23.980Z,10.31
2022-10-01T05:05:23.994Z,10.37
2022-10-01T05:06:23.957Z,10.33
2022-10-01T05:07:23.937Z,10.34
2022-10-01T05:08:23.941Z,10.30
2022-10-01T05:09:23.913Z,10.30
2022-10-01T05:10:23.922Z,10.33
2022-10-01T05:11:23.927Z,10.28
2022-10-01T05:12:24.625Z,10.28
2022-10-01T05:13:23.872Z,10.26
2022-10-01T05:14:23.881Z,10.30
2022-10-01T05:15:23.853Z,10.31
2022-10-01T05:16:23.947Z,10.26
2022-10-01T05:17:23.831Z,10.33
2022-10-01T05:18:23.834Z,10.34
2022-10-01T05:19:27.913Z,10.41
2022-10-01T05:20:23.813Z,10.41
2022-10-01T05:21:23.788Z,10.35
2022-10-01T05:22:23.813Z,10.35
2022-10-01T05:23:23.770Z,10.41
2022-10-01T05:24:23.776Z,10.40
2022-10-01T05:25:23.748Z,10.42
2022-10-01T05:26:23.750Z,10.41
2022-10-01T05:27:23.757Z,10.41
2022-10-01T05:28:23.812Z,10.44
2022-10-01T05:29:23.703Z,10.54
2022-10-01T05:30:23.709Z,10.63
2022-10-01T05:31:23.739Z,10.63
2022-10-01T05:32:23.704Z,10.63
2022-10-01T05:33:23.683Z,10.67
2022-10-01T05:34:23.665Z,10.69
2022-10-01T05:35:23.640Z,10.75
2022-10-01T05:36:23.646Z,10.76
2022-10-01T05:37:23.617Z,10.72
2022-10-01T05:38:23.654Z,10.68
2022-10-01T05:39:23.673Z,10.68
2022-10-01T05:40:23.602Z,10.67
2022-10-01T05:41:23.581Z,10.75
2022-10-01T05:42:23.583Z,10.81
2022-10-01T05:43:23.556Z,10.79
2022-10-01T05:44:23.580Z,10.76
2022-10-01T05:45:23.593Z,10.81
2022-10-01T05:46:23.538Z,10.84
2022-10-01T05:47:23.514Z,10.86
2022-10-01T05:48:23.515Z,10.86
2022-10-01T05:49:23.516Z,10.89
2022-10-01T05:50:23.498Z,10.89
2022-10-01T05:51:23.475Z,10.86
2022-10-01T05:52:23.478Z,10.82
2022-10-01T05:53:23.453Z,10.84
2022-10-01T05:54:23.453Z,10.87
2022-10-01T05:55:23.465Z,10.87
2022-10-01T05:56:23.437Z,10.86
2022-10-01T05:57:23.411Z,10.87
2022-10-01T05:58:23.411Z,10.84
2022-10-01T05:59:23.388Z,10.81
2022-10-01T06:00:23.417Z,10.78
2022-10-01T06:01:23.368Z,10.78
2022-10-01T06:02:23.511Z,10.76
2022-10-01T06:03:23.438Z,10.76
2022-10-01T06:04:23.353Z,10.78
2022-10-01T06:05:23.327Z,10.72
2022-10-01T06:06:23.360Z,10.69
2022-10-01T06:07:23.305Z,10.64
2022-10-01T06:08:23.307Z,10.61
2022-10-01T06:09:23.298Z,10.68
2022-10-01T06:10:23.287Z,10.64
2022-10-01T06:11:23.264Z,10.61
2022-10-01T06:12:23.371Z,10.60
2022-10-01T06:13:23.243Z,10.63
2022-10-01T06:14:23.247Z,10.68
2022-10-01T06:15:23.219Z,10.67
2022-10-01T06:16:23.271Z,10.68
2022-10-01T06:17:23.200Z,10.64
2022-10-01T06:18:23.232Z,10.67
2022-10-01T06:19:23.177Z,10.67
2022-10-01T06:20:23.188Z,10.69
2022-10-01T06:21:23.158Z,10.68
2022-10-01T06:22:23.161Z,10.68
2022-10-01T06:23:23.140Z,10.67
2022-10-01T06:24:23.162Z,10.68
2022-10-01T06:25:23.115Z,10.69
2022-10-01T06:26:23.117Z,10.71
2022-10-01T06:27:23.099Z,10.68
2022-10-01T06:28:23.189Z,10.68
2022-10-01T06:29:23.077Z,10.64
2022-10-01T06:30:23.101Z,10.64
2022-10-01T06:31:23.096Z,10.64
2022-10-01T06:32:23.058Z,10.67
2022-10-01T06:33:23.031Z,10.67
2022-10-01T06:34:23.035Z,10.68
2022-10-01T06:35:23.013Z,10.68
2022-10-01T06:36:23.039Z,10.71
2022-10-01T06:37:22.988Z,10.76
2022-10-01T06:38:22.995Z,10.82
2022-10-01T06:39:22.971Z,10.90
2022-10-01T06:40:22.972Z,10.87
2022-10-01T06:41:22.947Z,10.84
2022-10-01T06:42:22.977Z,10.82
2022-10-01T06:43:22.928Z,10.89
2022-10-01T06:44:22.932Z,10.92
2022-10-01T06:45:22.910Z,10.90
2022-10-01T06:46:22.963Z,10.90
2022-10-01T06:47:22.884Z,10.87
2022-10-01T06:48:22.913Z,10.90
2022-10-01T06:49:22.868Z,10.92
2022-10-01T06:50:22.866Z,10.96
2022-10-01T06:51:22.847Z,10.97
2022-10-01T06:52:22.844Z,11.00
2022-10-01T06:53:22.822Z,11.04
2022-10-01T06:54:22.856Z,11.04
2022-10-01T06:55:22.805Z,11.04
2022-10-01T06:56:22.819Z,11.05
2022-10-01T06:57:22.781Z,11.04
2022-10-01T06:58:22.854Z,11.05
2022-10-01T06:59:22.795Z,11.08
2022-10-01T07:00:22.763Z,11.15
2022-10-01T07:01:22.794Z,11.22
2022-10-01T07:02:22.847Z,11.19
2022-10-01T07:03:22.717Z,11.22
2022-10-01T07:04:22.721Z,11.23
2022-10-01T07:05:22.722Z,11.19
2022-10-01T07:06:22.705Z,11.26
2022-10-01T07:07:25.116Z,11.22
2022-10-01T07:08:22.683Z,11.23
2022-10-01T07:09:22.653Z,11.26
2022-10-01T07:10:22.702Z,11.29
2022-10-01T07:11:22.645Z,11.32
2022-10-01T07:12:22.636Z,11.26
2022-10-01T07:13:22.616Z,11.30
2022-10-01T07:14:22.615Z,11.30
2022-10-01T07:15:22.604Z,11.32
2022-10-01T07:16:22.691Z,11.35
2022-10-01T07:17:22.572Z,11.36
2022-10-01T07:18:22.573Z,11.35
2022-10-01T07:19:22.551Z,11.32
2022-10-01T07:20:22.553Z,11.35
2022-10-01T07:21:22.558Z,11.33
2022-10-01T07:22:22.530Z,11.33
2022-10-01T07:23:22.513Z,11.37
2022-10-01T07:24:22.509Z,11.37
2022-10-01T07:25:22.489Z,11.35
2022-10-01T07:26:22.489Z,11.37
2022-10-01T07:27:22.489Z,11.43
2022-10-01T07:28:22.515Z,11.41
2022-10-01T07:29:22.446Z,11.36
2022-10-01T07:30:22.451Z,11.41
2022-10-01T07:31:22.451Z,11.37
2022-10-01T07:32:22.428Z,11.36
2022-10-01T07:33:22.431Z,11.37
2022-10-01T07:34:22.406Z,11.36
2022-10-01T07:35:22.380Z,11.36
2022-10-01T07:36:22.385Z,11.36
2022-10-01T07:37:22.360Z,11.36
2022-10-01T07:38:22.363Z,11.40
2022-10-01T07:39:22.363Z,11.40
2022-10-01T07:40:22.343Z,11.43
2022-10-01T07:41:22.334Z,11.44
2022-10-01T07:42:22.322Z,11.44
2022-10-01T07:43:22.297Z,11.44
2022-10-01T07:44:22.303Z,11.43
2022-10-01T07:45:22.304Z,11.51
2022-10-01T07:46:22.365Z,11.57
2022-10-01T07:47:22.266Z,11.60
2022-10-01T07:48:22.258Z,11.62
2022-10-01T07:49:22.241Z,11.65
2022-10-01T07:50:22.241Z,11.62
2022-10-01T07:51:22.243Z,11.63
2022-10-01T07:52:22.215Z,11.65
2022-10-01T07:53:22.194Z,11.63
2022-10-01T07:54:22.194Z,11.66
2022-10-01T07:55:22.174Z,11.65
2022-10-01T07:56:22.178Z,11.66
2022-10-01T07:57:22.179Z,11.69
2022-10-01T07:58:22.151Z,11.72
2022-10-01T07:59:22.129Z,11.69
2022-10-01T08:00:22.137Z,11.65
2022-10-01T08:01:22.146Z,11.63
2022-10-01T08:02:22.203Z,11.66
2022-10-01T08:03:22.114Z,11.70
2022-10-01T08:04:22.093Z,11.70
2022-10-01T08:05:22.067Z,11.75
2022-10-01T08:06:25.560Z,11.77
2022-10-01T08:07:22.045Z,11.78
2022-10-01T08:08:22.053Z,11.83
2022-10-01T08:09:22.048Z,11.81
2022-10-01T08:10:22.128Z,11.87
2022-10-01T08:11:22.005Z,11.87
2022-10-01T08:12:22.005Z,11.88
2022-10-01T08:13:21.981Z,11.91
2022-10-01T08:14:21.992Z,11.91
2022-10-01T08:15:22.010Z,11.91
2022-10-01T08:16:22.039Z,11.88
2022-10-01T08:17:24.968Z,11.87
2022-10-01T08:18:21.953Z,11.87
2022-10-01T08:19:21.920Z,11.90
2022-10-01T08:20:22.025Z,11.91
2022-10-01T08:21:21.922Z,11.95
2022-10-01T08:22:21.900Z,12.00
2022-10-01T08:23:21.879Z,11.95
2022-10-01T08:24:21.877Z,11.94
2022-10-01T08:25:21.861Z,11.90
2022-10-01T08:26:21.859Z,11.88
2022-10-01T08:27:21.859Z,11.87
2022-10-01T08:28:21.899Z,11.88
2022-10-01T08:29:21.813Z,11.86
2022-10-01T08:30:21.880Z,11.86
2022-10-01T08:31:21.825Z,11.84
2022-10-01T08:32:21.797Z,11.83
2022-10-01T08:33:21.800Z,11.83
2022-10-01T08:34:21.784Z,11.83
2022-10-01T08:35:21.747Z,11.86
2022-10-01T08:36:21.752Z,11.84
2022-10-01T08:37:21.735Z,11.84
2022-10-01T08:38:21.730Z,11.83
2022-10-01T08:39:21.736Z,11.86
2022-10-01T08:40:21.715Z,11.87
2022-10-01T08:41:23.365Z,11.87
2022-10-01T08:42:21.691Z,11.87
2022-10-01T08:43:21.667Z,11.87
2022-10-01T08:44:21.668Z,11.87
2022-10-01T08:45:21.689Z,11.84
2022-10-01T08:46:21.649Z,11.87
2022-10-01T08:47:21.630Z,11.94
2022-10-01T08:48:21.627Z,11.99
2022-10-01T08:49:21.604Z,11.99
2022-10-01T08:50:21.593Z,12.02
2022-10-01T08:51:21.619Z,12.06
2022-10-01T08:52:21.580Z,12.07
2022-10-01T08:53:21.573Z,12.12
2022-10-01T08:54:21.574Z,12.17
2022-10-01T08:55:21.576Z,12.18
2022-10-01T08:56:21.529Z,12.17
2022-10-01T08:57:21.801Z,12.21
2022-10-01T08:58:21.519Z,12.25
2022-10-01T08:59:26.628Z,12.29
2022-10-01T09:00:21.526Z,12.37
2022-10-01T09:01:21.576Z,12.39
2022-10-01T09:02:21.465Z,12.43
2022-10-01T09:03:21.487Z,12.49
2022-10-01T09:04:21.484Z,12.58
2022-10-01T09:05:21.451Z,12.58
2022-10-01T09:06:21.424Z,12.61
2022-10-01T09:07:21.436Z,12.65
2022-10-01T09:08:21.432Z,12.68
2022-10-01T09:09:21.412Z,12.72
2022-10-01T09:10:21.379Z,12.76
2022-10-01T09:11:21.383Z,12.80
2022-10-01T09:12:21.361Z,12.86
2022-10-01T09:13:21.366Z,12.90
2022-10-01T09:14:21.361Z,12.91
2022-10-01T09:15:21.338Z,12.98
2022-10-01T09:16:21.345Z,13.00
2022-10-01T09:17:21.322Z,13.03
2022-10-01T09:18:21.297Z,13.03
2022-10-01T09:19:21.355Z,13.05
2022-10-01T09:20:21.283Z,13.11
2022-10-01T09:21:21.277Z,13.13
2022-10-01T09:22:21.257Z,13.15
2022-10-01T09:23:21.267Z,13.19
2022-10-01T09:24:21.238Z,13.18
2022-10-01T09:25:21.273Z,13.20
2022-10-01T09:26:25.519Z,13.22
2022-10-01T09:27:21.217Z,13.25
2022-10-01T09:28:21.295Z,13.27
2022-10-01T09:29:21.196Z,13.33
2022-10-01T09:30:21.171Z,13.35
2022-10-01T09:31:21.280Z,13.31
2022-10-01T09:32:21.150Z,13.33
2022-10-01T09:33:21.154Z,13.35
2022-10-01T09:34:21.137Z,13.41
2022-10-01T09:35:21.133Z,13.50
2022-10-01T09:36:21.108Z,13.57
2022-10-01T09:37:21.143Z,13.63
2022-10-01T09:38:21.110Z,13.72
2022-10-01T09:39:21.102Z,13.78
2022-10-01T09:40:21.080Z,13.78
2022-10-01T09:41:21.072Z,13.78
2022-10-01T09:42:21.677Z,13.79
2022-10-01T09:43:21.107Z,13.78
2022-10-01T09:44:21.021Z,13.75
2022-10-01T09:45:21.038Z,13.74
2022-10-01T09:46:21.045Z,13.72
2022-10-01T09:47:21.007Z,13.70
2022-10-01T09:48:20.980Z,13.65
2022-10-01T09:49:21.028Z,13.65
2022-10-01T09:50:20.962Z,13.67
2022-10-01T09:51:20.969Z,13.68
2022-10-01T09:52:20.941Z,13.65
2022-10-01T09:53:20.953Z,13.62
2022-10-01T09:54:20.917Z,13.59
2022-10-01T09:55:20.957Z,13.57
2022-10-01T09:56:20.898Z,13.63
2022-10-01T09:57:20.908Z,13.62
2022-10-01T09:58:20.876Z,13.65
2022-10-01T09:59:20.886Z,13.62
2022-10-01T10:00:20.858Z,13.60
2022-10-01T10:01:20.890Z,13.59
2022-10-01T10:02:20.928Z,13.62
2022-10-01T10:03:20.968Z,13.63
2022-10-01T10:04:20.815Z,13.70
2022-10-01T10:05:20.819Z,13.71
2022-10-01T10:06:20.811Z,13.71
2022-10-01T10:07:20.842Z,13.74
2022-10-01T10:08:20.769Z,13.72
2022-10-01T10:09:20.792Z,13.78
2022-10-01T10:10:25.291Z,13.81
2022-10-01T10:11:20.769Z,13.81
2022-10-01T10:12:20.737Z,13.79
2022-10-01T10:13:20.759Z,13.81
2022-10-01T10:14:21.687Z,13.83
2022-10-01T10:15:20.718Z,13.86
2022-10-01T10:16:20.795Z,13.87
2022-10-01T10:17:20.720Z,13.86
2022-10-01T10:18:23.905Z,13.90
2022-10-01T10:19:20.699Z,13.87
2022-10-01T10:20:20.656Z,13.81
2022-10-01T10:21:20.665Z,13.78
2022-10-01T10:22:20.634Z,13.75
2022-10-01T10:23:20.640Z,13.75
2022-10-01T10:24:20.602Z,13.74
2022-10-01T10:25:20.629Z,13.81
2022-10-01T10:26:20.579Z,13.89
2022-10-01T10:27:21.442Z,13.96
2022-10-01T10:28:20.641Z,13.97
2022-10-01T10:29:20.566Z,14.11
2022-10-01T10:30:20.541Z,14.26
2022-10-01T10:31:20.653Z,14.28
2022-10-01T10:32:20.519Z,14.36
2022-10-01T10:33:20.523Z,14.43
2022-10-01T10:34:20.495Z,14.50
2022-10-01T10:35:20.498Z,14.40
2022-10-01T10:36:20.508Z,14.30
2022-10-01T10:37:20.482Z,14.30
2022-10-01T10:38:20.463Z,14.35
2022-10-01T10:39:20.456Z,14.35
2022-10-01T10:40:20.433Z,14.36
2022-10-01T10:41:20.439Z,14.40
2022-10-01T10:42:20.528Z,14.41
2022-10-01T10:43:20.415Z,14.43
2022-10-01T10:44:20.391Z,14.41
2022-10-01T10:45:20.396Z,14.43
2022-10-01T10:46:20.425Z,14.43
2022-10-01T10:47:20.397Z,14.41
2022-10-01T10:48:20.353Z,14.36
2022-10-01T10:49:20.357Z,14.33
2022-10-01T10:50:20.332Z,14.35
2022-10-01T10:51:20.332Z,14.32
2022-10-01T10:52:20.308Z,14.30
2022-10-01T10:53:20.333Z,14.25
2022-10-01T10:54:20.291Z,14.28
2022-10-01T10:55:20.288Z,14.25
2022-10-01T10:56:20.283Z,14.22
2022-10-01T10:57:20.270Z,14.17
2022-10-01T10:58:20.269Z,14.15
2022-10-01T10:59:20.247Z,14.15
2022-10-01T11:00:20.228Z,14.20
2022-10-01T11:01:20.315Z,14.22
2022-10-01T11:02:20.248Z,14.23
2022-10-01T11:03:20.205Z,14.23
2022-10-01T11:04:20.208Z,14.18
2022-10-01T11:05:20.184Z,14.17
2022-10-01T11:06:20.162Z,14.14
2022-10-01T11:07:20.165Z,14.08
2022-10-01T11:08:20.136Z,14.05
2022-10-01T11:09:20.190Z,14.00
2022-10-01T11:10:20.120Z,13.97
2022-10-01T11:11:20.125Z,13.95
2022-10-01T11:12:20.098Z,13.95
2022-10-01T11:13:20.097Z,13.92
2022-10-01T11:14:23.456Z,13.89
2022-10-01T11:15:20.098Z,13.86
2022-10-01T11:16:20.086Z,13.86
2022-10-01T11:17:20.074Z,13.87
2022-10-01T11:18:20.036Z,13.87
2022-10-01T11:19:20.037Z,13.89
2022-10-01T11:20:21.176Z,13.86
2022-10-01T11:21:20.016Z,13.86
2022-10-01T11:22:19.991Z,13.86
2022-10-01T11:23:19.996Z,13.89
2022-10-01T11:24:19.969Z,13.99
2022-10-01T11:25:19.974Z,13.97
2022-10-01T11:26:19.969Z,14.03
2022-10-01T11:27:19.954Z,14.03
2022-10-01T11:28:20.008Z,14.08
2022-10-01T11:29:19.935Z,14.10
2022-10-01T11:30:19.909Z,14.14
2022-10-01T11:31:20.009Z,14.14
2022-10-01T11:32:19.887Z,14.18
2022-10-01T11:33:19.888Z,14.23
2022-10-01T11:34:19.874Z,14.25
2022-10-01T11:35:19.867Z,14.28
2022-10-01T11:36:19.843Z,14.45
2022-10-01T11:37:19.872Z,14.65
2022-10-01T11:38:19.821Z,14.79
2022-10-01T11:39:19.827Z,15.10
2022-10-01T11:40:19.805Z,15.37
2022-10-01T11:41:19.803Z,15.37
2022-10-01T11:42:19.779Z,15.55
2022-10-01T11:43:19.814Z,15.88
2022-10-01T11:44:19.761Z,16.02
2022-10-01T11:45:19.760Z,16.08
2022-10-01T11:46:19.782Z,16.26
2022-10-01T11:47:19.743Z,16.47
2022-10-01T11:48:19.715Z,16.36
2022-10-01T11:49:19.752Z,16.31
2022-10-01T11:50:19.693Z,16.26
2022-10-01T11:51:19.705Z,16.43
2022-10-01T11:52:19.675Z,16.58
2022-10-01T11:53:19.688Z,16.53
2022-10-01T11:54:19.651Z,16.76
2022-10-01T11:55:19.683Z,16.93
2022-10-01T11:56:19.633Z,17.06
2022-10-01T11:57:19.638Z,17.20
2022-10-01T11:58:19.612Z,17.24
2022-10-01T11:59:19.613Z,17.23
2022-10-01T12:00:21.960Z,16.96
2022-10-01T12:01:19.626Z,16.90
2022-10-01T12:02:19.620Z,17.08
2022-10-01T12:03:19.572Z,17.08
2022-10-01T12:04:19.548Z,16.90
2022-10-01T12:05:19.606Z,16.75
2022-10-01T12:06:24.469Z,16.81
2022-10-01T12:07:19.558Z,16.71
2022-10-01T12:08:19.506Z,16.53
2022-10-01T12:09:19.507Z,16.36
2022-10-01T12:10:19.494Z,16.23
2022-10-01T12:11:19.492Z,16.05
2022-10-01T12:12:19.463Z,15.95
2022-10-01T12:13:19.491Z,15.90
2022-10-01T12:14:19.444Z,15.80
2022-10-01T12:15:19.448Z,15.76
2022-10-01T12:16:19.496Z,15.65
2022-10-01T12:17:19.431Z,15.64
2022-10-01T12:18:19.402Z,15.61
2022-10-01T12:19:19.427Z,15.58
2022-10-01T12:20:19.378Z,15.49
2022-10-01T12:21:19.390Z,15.42
2022-10-01T12:22:23.601Z,15.39
2022-10-01T12:23:19.363Z,15.40
2022-10-01T12:24:19.337Z,15.36
2022-10-01T12:25:19.368Z,15.36
2022-10-01T12:26:19.315Z,15.33
2022-10-01T12:27:19.317Z,15.28
2022-10-01T12:28:19.350Z,15.28
2022-10-01T12:29:19.295Z,15.19
2022-10-01T12:30:19.269Z,15.10
2022-10-01T12:31:19.331Z,15.03
2022-10-01T12:32:19.249Z,14.99
2022-10-01T12:33:19.259Z,14.89
2022-10-01T12:34:19.228Z,14.82
2022-10-01T12:35:19.232Z,14.72
2022-10-01T12:36:19.213Z,14.62
2022-10-01T12:37:19.259Z,14.47
2022-10-01T12:38:19.191Z,13.97
2022-10-01T12:39:19.195Z,13.52
2022-10-01T12:40:19.167Z,13.15
2022-10-01T12:41:19.179Z,12.78
2022-10-01T12:42:19.149Z,12.62
2022-10-01T12:43:19.176Z,12.64
2022-10-01T12:44:19.132Z,12.65
2022-10-01T12:45:19.152Z,12.70
2022-10-01T12:46:19.158Z,12.76
2022-10-01T12:47:19.108Z,12.73
2022-10-01T12:48:19.081Z,12.64
2022-10-01T12:49:19.127Z,12.58
2022-10-01T12:50:19.060Z,12.50
2022-10-01T12:51:19.066Z,12.46
2022-10-01T12:52:19.038Z,12.31